sensor_id;sensor_type;location;lat;lon;timestamp;temperature;humidity
72128;DHT22;60000;51.030;7.024;2023-02-28T00:00:41;-1.17;74.29
72128;DHT22;60000;51.030;7.024;2023-02-28T00:03:06;-1.15;74.45
72128;DHT22;60000;51.030;7.024;2023-02-28T00:05:32;-1.20;74.11
72128;DHT22;60000;51.030;7.024;2023-02-28T00:07:58;-1.18;74.48
72128;DHT22;60000;51.030;7.024;2023-02-28T00:10:29;-1.18;74.37
72128;DHT22;60000;51.030;7.024;2023-02-28T00:12:58;-1.17;74.47
72128;DHT22;60000;51.030;7.024;2023-02-28T00:15:24;-1.13;74.62
72128;DHT22;60000;51.030;7.024;2023-02-28T00:17:50;-1.13;74.58
72128;DHT22;60000;51.030;7.024;2023-02-28T00:20:16;-1.11;74.66
72128;DHT22;60000;51.030;7.024;2023-02-28T00:22:44;-1.10;74.60
72128;DHT22;60000;51.030;7.024;2023-02-28T00:25:10;-1.10;74.35
72128;DHT22;60000;51.030;7.024;2023-02-28T00:27:37;-1.07;74.58
72128;DHT22;60000;51.030;7.024;2023-02-28T00:30:05;-1.05;74.56
72128;DHT22;60000;51.030;7.024;2023-02-28T00:32:30;-1.07;74.55
72128;DHT22;60000;51.030;7.024;2023-02-28T00:34:56;-1.07;74.45
72128;DHT22;60000;51.030;7.024;2023-02-28T00:37:22;-1.05;74.48
72128;DHT22;60000;51.030;7.024;2023-02-28T00:39:48;-1.10;74.34
72128;DHT22;60000;51.030;7.024;2023-02-28T00:42:13;-1.10;74.39
72128;DHT22;60000;51.030;7.024;2023-02-28T00:44:38;-1.11;74.55
72128;DHT22;60000;51.030;7.024;2023-02-28T00:47:04;-1.11;74.60
72128;DHT22;60000;51.030;7.024;2023-02-28T00:49:30;-1.14;74.31
72128;DHT22;60000;51.030;7.024;2023-02-28T00:51:55;-1.18;74.68
72128;DHT22;60000;51.030;7.024;2023-02-28T00:54:22;-1.21;74.68
72128;DHT22;60000;51.030;7.024;2023-02-28T00:56:48;-1.24;74.70
72128;DHT22;60000;51.030;7.024;2023-02-28T00:59:14;-1.27;74.79
72128;DHT22;60000;51.030;7.024;2023-02-28T01:01:40;-1.24;74.82
72128;DHT22;60000;51.030;7.024;2023-02-28T01:04:06;-1.24;75.30
72128;DHT22;60000;51.030;7.024;2023-02-28T01:06:31;-1.27;74.92
72128;DHT22;60000;51.030;7.024;2023-02-28T01:08:58;-1.31;74.74
72128;DHT22;60000;51.030;7.024;2023-02-28T01:11:24;-1.37;74.90
72128;DHT22;60000;51.030;7.024;2023-02-28T01:13:52;-1.37;75.32
72128;DHT22;60000;51.030;7.024;2023-02-28T01:16:18;-1.35;75.06
72128;DHT22;60000;51.030;7.024;2023-02-28T01:18:43;-1.40;75.24
72128;DHT22;60000;51.030;7.024;2023-02-28T01:21:12;-1.41;75.60
72128;DHT22;60000;51.030;7.024;2023-02-28T01:23:39;-1.42;75.32
72128;DHT22;60000;51.030;7.024;2023-02-28T01:26:09;-1.47;75.23
72128;DHT22;60000;51.030;7.024;2023-02-28T01:28:35;-1.50;75.70
72128;DHT22;60000;51.030;7.024;2023-02-28T01:31:01;-1.51;75.93
72128;DHT22;60000;51.030;7.024;2023-02-28T01:33:26;-1.48;76.21
72128;DHT22;60000;51.030;7.024;2023-02-28T01:36:04;-1.52;75.71
72128;DHT22;60000;51.030;7.024;2023-02-28T01:38:30;-1.51;75.97
72128;DHT22;60000;51.030;7.024;2023-02-28T01:40:56;-1.54;75.92
72128;DHT22;60000;51.030;7.024;2023-02-28T01:43:24;-1.55;75.84
72128;DHT22;60000;51.030;7.024;2023-02-28T01:45:51;-1.59;76.09
72128;DHT22;60000;51.030;7.024;2023-02-28T01:48:16;-1.59;76.14
72128;DHT22;60000;51.030;7.024;2023-02-28T01:50:44;-1.59;76.38
72128;DHT22;60000;51.030;7.024;2023-02-28T01:53:14;-1.55;76.28
72128;DHT22;60000;51.030;7.024;2023-02-28T01:55:44;-1.58;76.08
72128;DHT22;60000;51.030;7.024;2023-02-28T01:58:11;-1.61;75.85
72128;DHT22;60000;51.030;7.024;2023-02-28T02:00:36;-1.59;76.33
72128;DHT22;60000;51.030;7.024;2023-02-28T02:03:09;-1.54;76.48
72128;DHT22;60000;51.030;7.024;2023-02-28T02:05:37;-1.52;76.37
72128;DHT22;60000;51.030;7.024;2023-02-28T02:08:05;-1.44;76.71
72128;DHT22;60000;51.030;7.024;2023-02-28T02:10:46;-1.40;76.01
72128;DHT22;60000;51.030;7.024;2023-02-28T02:18:51;-1.33;75.33
72128;DHT22;60000;51.030;7.024;2023-02-28T02:27:50;-1.35;74.66
72128;DHT22;60000;51.030;7.024;2023-02-28T02:36:06;-1.45;74.68
72128;DHT22;60000;51.030;7.024;2023-02-28T02:38:38;-1.48;74.81
72128;DHT22;60000;51.030;7.024;2023-02-28T02:41:25;-1.51;74.64
72128;DHT22;60000;51.030;7.024;2023-02-28T02:44:43;-1.52;74.67
72128;DHT22;60000;51.030;7.024;2023-02-28T02:46:43;-1.55;74.75
72128;DHT22;60000;51.030;7.024;2023-02-28T02:49:13;-1.55;74.86
72128;DHT22;60000;51.030;7.024;2023-02-28T02:51:41;-1.52;74.70
72128;DHT22;60000;51.030;7.024;2023-02-28T02:54:19;-1.52;74.57
72128;DHT22;60000;51.030;7.024;2023-02-28T02:56:48;-1.54;74.28
72128;DHT22;60000;51.030;7.024;2023-02-28T02:59:18;-1.55;73.99
72128;DHT22;60000;51.030;7.024;2023-02-28T03:01:49;-1.58;74.42
72128;DHT22;60000;51.030;7.024;2023-02-28T03:04:20;-1.59;74.20
72128;DHT22;60000;51.030;7.024;2023-02-28T03:06:46;-1.61;74.12
72128;DHT22;60000;51.030;7.024;2023-02-28T03:09:11;-1.65;73.97
72128;DHT22;60000;51.030;7.024;2023-02-28T03:11:37;-1.68;74.04
72128;DHT22;60000;51.030;7.024;2023-02-28T03:17:30;-1.81;74.22
72128;DHT22;60000;51.030;7.024;2023-02-28T03:25:37;-1.94;74.91
72128;DHT22;60000;51.030;7.024;2023-02-28T03:28:19;-1.94;75.20
72128;DHT22;60000;51.030;7.024;2023-02-28T03:30:49;-1.94;75.66
72128;DHT22;60000;51.030;7.024;2023-02-28T03:33:23;-1.96;75.63
72128;DHT22;60000;51.030;7.024;2023-02-28T03:35:55;-1.96;75.30
72128;DHT22;60000;51.030;7.024;2023-02-28T03:40:58;-1.99;76.14
72128;DHT22;60000;51.030;7.024;2023-02-28T03:43:28;-1.92;76.30
72128;DHT22;60000;51.030;7.024;2023-02-28T03:45:55;-1.89;76.09
72128;DHT22;60000;51.030;7.024;2023-02-28T03:48:25;-1.89;76.03
72128;DHT22;60000;51.030;7.024;2023-02-28T03:50:55;-1.89;75.94
72128;DHT22;60000;51.030;7.024;2023-02-28T03:53:32;-1.90;75.75
72128;DHT22;60000;51.030;7.024;2023-02-28T03:56:04;-1.93;75.92
72128;DHT22;60000;51.030;7.024;2023-02-28T03:58:47;-1.92;76.28
72128;DHT22;60000;51.030;7.024;2023-02-28T04:01:18;-1.99;75.90
72128;DHT22;60000;51.030;7.024;2023-02-28T04:03:45;-1.99;76.08
72128;DHT22;60000;51.030;7.024;2023-02-28T04:06:16;-2.03;76.22
72128;DHT22;60000;51.030;7.024;2023-02-28T04:08:43;-2.03;76.49
72128;DHT22;60000;51.030;7.024;2023-02-28T04:11:38;-2.02;76.82
72128;DHT22;60000;51.030;7.024;2023-02-28T04:14:05;-2.06;76.87
72128;DHT22;60000;51.030;7.024;2023-02-28T04:16:32;-2.04;76.75
72128;DHT22;60000;51.030;7.024;2023-02-28T04:18:58;-1.99;77.02
72128;DHT22;60000;51.030;7.024;2023-02-28T04:21:27;-1.94;77.02
72128;DHT22;60000;51.030;7.024;2023-02-28T04:23:53;-1.94;76.70
72128;DHT22;60000;51.030;7.024;2023-02-28T04:26:18;-1.94;76.57
72128;DHT22;60000;51.030;7.024;2023-02-28T04:28:43;-1.97;76.66
72128;DHT22;60000;51.030;7.024;2023-02-28T04:31:09;-1.96;76.55
72128;DHT22;60000;51.030;7.024;2023-02-28T04:33:34;-1.93;76.51
72128;DHT22;60000;51.030;7.024;2023-02-28T04:36:05;-1.93;76.29
72128;DHT22;60000;51.030;7.024;2023-02-28T04:38:37;-1.92;75.93
72128;DHT22;60000;51.030;7.024;2023-02-28T04:41:03;-1.90;75.94
72128;DHT22;60000;51.030;7.024;2023-02-28T04:43:29;-1.90;76.28
72128;DHT22;60000;51.030;7.024;2023-02-28T04:45:56;-1.87;75.99
72128;DHT22;60000;51.030;7.024;2023-02-28T04:48:23;-1.87;75.59
72128;DHT22;60000;51.030;7.024;2023-02-28T04:50:49;-1.86;75.78
72128;DHT22;60000;51.030;7.024;2023-02-28T04:53:15;-1.81;75.43
72128;DHT22;60000;51.030;7.024;2023-02-28T04:55:40;-1.76;75.34
72128;DHT22;60000;51.030;7.024;2023-02-28T04:58:05;-1.76;75.24
72128;DHT22;60000;51.030;7.024;2023-02-28T05:00:31;-1.72;74.79
72128;DHT22;60000;51.030;7.024;2023-02-28T05:02:56;-1.72;74.83
72128;DHT22;60000;51.030;7.024;2023-02-28T05:05:21;-1.72;74.64
72128;DHT22;60000;51.030;7.024;2023-02-28T05:07:46;-1.71;74.48
72128;DHT22;60000;51.030;7.024;2023-02-28T05:10:12;-1.75;74.51
72128;DHT22;60000;51.030;7.024;2023-02-28T05:12:37;-1.76;74.46
72128;DHT22;60000;51.030;7.024;2023-02-28T05:15:04;-1.76;74.62
72128;DHT22;60000;51.030;7.024;2023-02-28T05:17:30;-1.76;74.36
72128;DHT22;60000;51.030;7.024;2023-02-28T05:19:55;-1.76;74.28
72128;DHT22;60000;51.030;7.024;2023-02-28T05:22:21;-1.75;74.50
72128;DHT22;60000;51.030;7.024;2023-02-28T05:24:46;-1.73;74.39
72128;DHT22;60000;51.030;7.024;2023-02-28T05:27:12;-1.75;74.29
72128;DHT22;60000;51.030;7.024;2023-02-28T05:29:37;-1.72;74.16
72128;DHT22;60000;51.030;7.024;2023-02-28T05:32:11;-1.73;73.88
72128;DHT22;60000;51.030;7.024;2023-02-28T05:34:38;-1.73;73.73
72128;DHT22;60000;51.030;7.024;2023-02-28T05:37:04;-1.72;73.84
72128;DHT22;60000;51.030;7.024;2023-02-28T05:39:30;-1.69;73.78
72128;DHT22;60000;51.030;7.024;2023-02-28T05:41:55;-1.65;73.44
72128;DHT22;60000;51.030;7.024;2023-02-28T05:44:20;-1.66;73.35
72128;DHT22;60000;51.030;7.024;2023-02-28T05:46:46;-1.62;73.37
72128;DHT22;60000;51.030;7.024;2023-02-28T05:49:11;-1.61;72.93
72128;DHT22;60000;51.030;7.024;2023-02-28T05:51:37;-1.63;72.80
72128;DHT22;60000;51.030;7.024;2023-02-28T05:54:05;-1.63;72.87
72128;DHT22;60000;51.030;7.024;2023-02-28T05:56:31;-1.69;72.54
72128;DHT22;60000;51.030;7.024;2023-02-28T05:58:56;-1.72;72.48
72128;DHT22;60000;51.030;7.024;2023-02-28T06:01:43;-1.73;72.59
72128;DHT22;60000;51.030;7.024;2023-02-28T06:04:17;-1.71;72.46
72128;DHT22;60000;51.030;7.024;2023-02-28T06:06:45;-1.73;72.10
72128;DHT22;60000;51.030;7.024;2023-02-28T06:09:10;-1.75;71.95
72128;DHT22;60000;51.030;7.024;2023-02-28T06:11:36;-1.82;72.02
72128;DHT22;60000;51.030;7.024;2023-02-28T06:14:02;-1.82;72.26
72128;DHT22;60000;51.030;7.024;2023-02-28T06:16:29;-1.83;71.99
72128;DHT22;60000;51.030;7.024;2023-02-28T06:18:57;-1.86;72.07
72128;DHT22;60000;51.030;7.024;2023-02-28T06:21:22;-1.86;71.98
72128;DHT22;60000;51.030;7.024;2023-02-28T06:23:48;-1.83;71.91
72128;DHT22;60000;51.030;7.024;2023-02-28T06:26:13;-1.79;71.64
72128;DHT22;60000;51.030;7.024;2023-02-28T06:28:39;-1.78;71.62
72128;DHT22;60000;51.030;7.024;2023-02-28T06:31:13;-1.79;71.29
72128;DHT22;60000;51.030;7.024;2023-02-28T06:33:39;-1.73;71.23
72128;DHT22;60000;51.030;7.024;2023-02-28T06:36:05;-1.71;70.95
72128;DHT22;60000;51.030;7.024;2023-02-28T06:38:32;-1.71;70.76
72128;DHT22;60000;51.030;7.024;2023-02-28T06:40:59;-1.69;70.40
72128;DHT22;60000;51.030;7.024;2023-02-28T06:43:28;-1.69;70.46
72128;DHT22;60000;51.030;7.024;2023-02-28T06:46:01;-1.65;70.10
72128;DHT22;60000;51.030;7.024;2023-02-28T06:48:27;-1.61;69.83
72128;DHT22;60000;51.030;7.024;2023-02-28T06:51:02;-1.55;69.20
72128;DHT22;60000;51.030;7.024;2023-02-28T06:53:28;-1.52;69.12
72128;DHT22;60000;51.030;7.024;2023-02-28T06:55:53;-1.50;68.93
72128;DHT22;60000;51.030;7.024;2023-02-28T06:58:18;-1.47;68.65
72128;DHT22;60000;51.030;7.024;2023-02-28T07:00:45;-1.42;68.28
72128;DHT22;60000;51.030;7.024;2023-02-28T07:03:11;-1.38;67.91
72128;DHT22;60000;51.030;7.024;2023-02-28T07:05:37;-1.31;67.46
72128;DHT22;60000;51.030;7.024;2023-02-28T07:08:04;-1.27;67.21
72128;DHT22;60000;51.030;7.024;2023-02-28T07:10:30;-1.23;66.81
72128;DHT22;60000;51.030;7.024;2023-02-28T07:12:55;-1.14;66.35
72128;DHT22;60000;51.030;7.024;2023-02-28T07:15:21;-1.10;66.18
72128;DHT22;60000;51.030;7.024;2023-02-28T07:17:46;-1.05;65.88
72128;DHT22;60000;51.030;7.024;2023-02-28T07:20:11;-1.04;65.62
72128;DHT22;60000;51.030;7.024;2023-02-28T07:22:37;-1.05;65.65
72128;DHT22;60000;51.030;7.024;2023-02-28T07:25:04;-1.01;65.41
72128;DHT22;60000;51.030;7.024;2023-02-28T07:27:29;-0.92;64.86
72128;DHT22;60000;51.030;7.024;2023-02-28T07:29:55;-0.84;64.07
72128;DHT22;60000;51.030;7.024;2023-02-28T07:32:21;-0.80;63.92
72128;DHT22;60000;51.030;7.024;2023-02-28T07:34:47;-0.74;63.64
72128;DHT22;60000;51.030;7.024;2023-02-28T07:37:13;-0.72;63.56
72128;DHT22;60000;51.030;7.024;2023-02-28T07:39:39;-0.62;62.93
72128;DHT22;60000;51.030;7.024;2023-02-28T07:42:07;-0.53;62.71
72128;DHT22;60000;51.030;7.024;2023-02-28T07:44:35;-0.49;62.24
72128;DHT22;60000;51.030;7.024;2023-02-28T07:47:06;-0.41;62.21
72128;DHT22;60000;51.030;7.024;2023-02-28T07:49:31;-0.31;61.55
72128;DHT22;60000;51.030;7.024;2023-02-28T07:51:57;-0.24;61.27
72128;DHT22;60000;51.030;7.024;2023-02-28T07:54:22;-0.11;61.57
72128;DHT22;60000;51.030;7.024;2023-02-28T07:56:47;0.14;62.29
72128;DHT22;60000;51.030;7.024;2023-02-28T07:59:13;0.50;61.45
72128;DHT22;60000;51.030;7.024;2023-02-28T08:01:38;0.89;60.67
72128;DHT22;60000;51.030;7.024;2023-02-28T08:04:03;1.36;60.02
72128;DHT22;60000;51.030;7.024;2023-02-28T08:06:29;1.81;60.51
72128;DHT22;60000;51.030;7.024;2023-02-28T08:08:54;2.25;57.12
72128;DHT22;60000;51.030;7.024;2023-02-28T08:11:21;2.73;56.55
72128;DHT22;60000;51.030;7.024;2023-02-28T08:13:46;3.01;53.56
72128;DHT22;60000;51.030;7.024;2023-02-28T08:16:13;3.49;55.18
72128;DHT22;60000;51.030;7.024;2023-02-28T08:18:42;3.95;53.62
72128;DHT22;60000;51.030;7.024;2023-02-28T08:21:09;4.14;49.60
72128;DHT22;60000;51.030;7.024;2023-02-28T08:23:34;4.49;48.85
72128;DHT22;60000;51.030;7.024;2023-02-28T08:26:00;4.86;48.87
72128;DHT22;60000;51.030;7.024;2023-02-28T08:28:25;5.19;47.06
72128;DHT22;60000;51.030;7.024;2023-02-28T08:30:51;5.47;46.02
72128;DHT22;60000;51.030;7.024;2023-02-28T08:33:16;5.75;44.66
72128;DHT22;60000;51.030;7.024;2023-02-28T08:35:41;6.16;44.48
72128;DHT22;60000;51.030;7.024;2023-02-28T08:38:07;6.36;41.50
72128;DHT22;60000;51.030;7.024;2023-02-28T08:40:32;6.48;40.58
72128;DHT22;60000;51.030;7.024;2023-02-28T08:42:57;6.48;39.02
72128;DHT22;60000;51.030;7.024;2023-02-28T08:45:23;6.53;39.43
72128;DHT22;60000;51.030;7.024;2023-02-28T08:47:49;6.89;40.85
72128;DHT22;60000;51.030;7.024;2023-02-28T08:50:14;6.95;37.00
72128;DHT22;60000;51.030;7.024;2023-02-28T08:52:42;7.22;39.29
72128;DHT22;60000;51.030;7.024;2023-02-28T08:55:08;7.46;38.81
72128;DHT22;60000;51.030;7.024;2023-02-28T08:57:34;7.60;37.23
72128;DHT22;60000;51.030;7.024;2023-02-28T09:00:00;7.73;37.77
72128;DHT22;60000;51.030;7.024;2023-02-28T09:02:26;7.61;35.94
72128;DHT22;60000;51.030;7.024;2023-02-28T09:04:52;7.67;36.11
72128;DHT22;60000;51.030;7.024;2023-02-28T09:07:17;7.73;35.17
72128;DHT22;60000;51.030;7.024;2023-02-28T09:09:42;7.70;36.32
72128;DHT22;60000;51.030;7.024;2023-02-28T09:12:22;7.90;37.25
72128;DHT22;60000;51.030;7.024;2023-02-28T09:14:48;7.94;35.18
72128;DHT22;60000;51.030;7.024;2023-02-28T09:17:13;8.01;35.37
72128;DHT22;60000;51.030;7.024;2023-02-28T09:19:38;8.02;34.89
72128;DHT22;60000;51.030;7.024;2023-02-28T09:22:04;8.16;35.19
72128;DHT22;60000;51.030;7.024;2023-02-28T09:24:29;8.28;35.29
72128;DHT22;60000;51.030;7.024;2023-02-28T09:26:57;8.39;35.15
72128;DHT22;60000;51.030;7.024;2023-02-28T09:29:22;8.57;34.47
72128;DHT22;60000;51.030;7.024;2023-02-28T09:31:47;8.50;33.92
72128;DHT22;60000;51.030;7.024;2023-02-28T09:34:13;8.42;34.56
72128;DHT22;60000;51.030;7.024;2023-02-28T09:36:38;8.36;34.36
72128;DHT22;60000;51.030;7.024;2023-02-28T09:39:03;8.57;34.42
72128;DHT22;60000;51.030;7.024;2023-02-28T09:41:36;8.57;33.96
72128;DHT22;60000;51.030;7.024;2023-02-28T09:44:05;8.73;33.79
72128;DHT22;60000;51.030;7.024;2023-02-28T09:46:40;8.57;33.90
72128;DHT22;60000;51.030;7.024;2023-02-28T09:49:11;8.63;34.17
72128;DHT22;60000;51.030;7.024;2023-02-28T09:51:59;9.00;34.14
72128;DHT22;60000;51.030;7.024;2023-02-28T09:54:29;9.18;33.81
72128;DHT22;60000;51.030;7.024;2023-02-28T09:57:34;9.28;31.28
72128;DHT22;60000;51.030;7.024;2023-02-28T10:02:55;9.14;34.46
72128;DHT22;60000;51.030;7.024;2023-02-28T10:05:33;9.14;32.03
72128;DHT22;60000;51.030;7.024;2023-02-28T10:10:43;8.97;31.78
72128;DHT22;60000;51.030;7.024;2023-02-28T10:16:06;8.73;31.38
72128;DHT22;60000;51.030;7.024;2023-02-28T10:21:19;8.63;32.40
72128;DHT22;60000;51.030;7.024;2023-02-28T10:23:46;8.73;33.10
72128;DHT22;60000;51.030;7.024;2023-02-28T10:26:14;8.67;31.72
72128;DHT22;60000;51.030;7.024;2023-02-28T10:28:41;8.52;32.55
72128;DHT22;60000;51.030;7.024;2023-02-28T10:31:40;8.25;32.84
72128;DHT22;60000;51.030;7.024;2023-02-28T10:34:07;8.53;33.81
72128;DHT22;60000;51.030;7.024;2023-02-28T10:36:32;8.60;32.98
72128;DHT22;60000;51.030;7.024;2023-02-28T10:38:58;8.64;33.03
72128;DHT22;60000;51.030;7.024;2023-02-28T10:41:30;8.74;32.19
72128;DHT22;60000;51.030;7.024;2023-02-28T10:44:22;8.62;31.24
72128;DHT22;60000;51.030;7.024;2023-02-28T10:46:48;8.29;32.48
72128;DHT22;60000;51.030;7.024;2023-02-28T10:49:24;8.12;33.49
72128;DHT22;60000;51.030;7.024;2023-02-28T10:51:55;8.22;34.46
72128;DHT22;60000;51.030;7.024;2023-02-28T10:57:15;8.41;32.53
72128;DHT22;60000;51.030;7.024;2023-02-28T10:59:40;8.59;32.94
72128;DHT22;60000;51.030;7.024;2023-02-28T11:02:32;8.71;33.33
72128;DHT22;60000;51.030;7.024;2023-02-28T11:04:58;9.01;33.92
72128;DHT22;60000;51.030;7.024;2023-02-28T11:07:25;9.36;33.73
72128;DHT22;60000;51.030;7.024;2023-02-28T11:09:52;9.45;32.59
72128;DHT22;60000;51.030;7.024;2023-02-28T11:12:27;9.56;32.97
72128;DHT22;60000;51.030;7.024;2023-02-28T11:15:00;9.41;31.97
72128;DHT22;60000;51.030;7.024;2023-02-28T11:17:29;9.56;32.61
72128;DHT22;60000;51.030;7.024;2023-02-28T11:20:02;9.17;31.75
72128;DHT22;60000;51.030;7.024;2023-02-28T11:22:32;8.92;32.27
72128;DHT22;60000;51.030;7.024;2023-02-28T11:25:01;8.96;32.60
72128;DHT22;60000;51.030;7.024;2023-02-28T11:29:56;8.74;34.55
72128;DHT22;60000;51.030;7.024;2023-02-28T11:32:23;8.96;34.08
72128;DHT22;60000;51.030;7.024;2023-02-28T11:37:35;8.25;34.15
72128;DHT22;60000;51.030;7.024;2023-02-28T11:40:02;7.84;33.59
72128;DHT22;60000;51.030;7.024;2023-02-28T11:45:45;8.24;34.97
72128;DHT22;60000;51.030;7.024;2023-02-28T11:48:22;8.59;34.79
72128;DHT22;60000;51.030;7.024;2023-02-28T11:53:54;8.74;33.82
72128;DHT22;60000;51.030;7.024;2023-02-28T11:56:43;8.85;33.48
72128;DHT22;60000;51.030;7.024;2023-02-28T12:10:19;7.90;35.14
72128;DHT22;60000;51.030;7.024;2023-02-28T12:13:16;7.90;34.52
72128;DHT22;60000;51.030;7.024;2023-02-28T12:26:45;7.59;34.89
72128;DHT22;60000;51.030;7.024;2023-02-28T12:29:26;7.70;35.21
72128;DHT22;60000;51.030;7.024;2023-02-28T12:32:04;7.66;35.41
72128;DHT22;60000;51.030;7.024;2023-02-28T12:34:48;7.67;35.29
72128;DHT22;60000;51.030;7.024;2023-02-28T12:37:19;7.77;35.78
72128;DHT22;60000;51.030;7.024;2023-02-28T12:39:51;7.88;34.99
72128;DHT22;60000;51.030;7.024;2023-02-28T12:42:27;7.88;34.45
72128;DHT22;60000;51.030;7.024;2023-02-28T12:45:10;7.91;34.66
72128;DHT22;60000;51.030;7.024;2023-02-28T12:47:38;7.88;34.99
72128;DHT22;60000;51.030;7.024;2023-02-28T12:50:08;7.77;35.19
72128;DHT22;60000;51.030;7.024;2023-02-28T12:57:52;7.70;33.88
72128;DHT22;60000;51.030;7.024;2023-02-28T13:00:22;7.60;35.36
72128;DHT22;60000;51.030;7.024;2023-02-28T13:05:56;7.97;35.11
72128;DHT22;60000;51.030;7.024;2023-02-28T13:08:59;8.12;35.41
72128;DHT22;60000;51.030;7.024;2023-02-28T13:11:46;8.28;35.16
72128;DHT22;60000;51.030;7.024;2023-02-28T13:14:22;8.38;34.54
72128;DHT22;60000;51.030;7.024;2023-02-28T13:19:58;8.19;34.53
72128;DHT22;60000;51.030;7.024;2023-02-28T13:22:44;7.98;33.92
72128;DHT22;60000;51.030;7.024;2023-02-28T13:27:49;7.92;34.48
72128;DHT22;60000;51.030;7.024;2023-02-28T13:33:33;8.09;34.85
72128;DHT22;60000;51.030;7.024;2023-02-28T13:38:44;8.08;34.97
72128;DHT22;60000;51.030;7.024;2023-02-28T13:46:28;8.01;35.54
72128;DHT22;60000;51.030;7.024;2023-02-28T13:48:53;8.03;34.58
72128;DHT22;60000;51.030;7.024;2023-02-28T14:05:39;7.81;35.57
72128;DHT22;60000;51.030;7.024;2023-02-28T14:08:08;7.85;36.53
72128;DHT22;60000;51.030;7.024;2023-02-28T14:10:42;7.74;35.24
72128;DHT22;60000;51.030;7.024;2023-02-28T14:15:57;7.59;36.84
72128;DHT22;60000;51.030;7.024;2023-02-28T14:18:32;7.71;36.55
72128;DHT22;60000;51.030;7.024;2023-02-28T14:26:54;8.12;36.32
72128;DHT22;60000;51.030;7.024;2023-02-28T14:32:10;8.16;35.49
72128;DHT22;60000;51.030;7.024;2023-02-28T14:34:45;8.31;36.37
72128;DHT22;60000;51.030;7.024;2023-02-28T14:37:19;8.22;35.83
72128;DHT22;60000;51.030;7.024;2023-02-28T14:39:46;8.25;35.10
72128;DHT22;60000;51.030;7.024;2023-02-28T14:42:31;8.19;34.68
72128;DHT22;60000;51.030;7.024;2023-02-28T14:44:57;8.18;34.81
72128;DHT22;60000;51.030;7.024;2023-02-28T14:47:26;8.05;34.37
72128;DHT22;60000;51.030;7.024;2023-02-28T14:49:52;8.09;34.92
72128;DHT22;60000;51.030;7.024;2023-02-28T14:52:21;8.13;35.72
72128;DHT22;60000;51.030;7.024;2023-02-28T14:54:52;8.11;35.52
72128;DHT22;60000;51.030;7.024;2023-02-28T14:57:27;8.21;35.50
72128;DHT22;60000;51.030;7.024;2023-02-28T15:00:15;8.28;35.30
72128;DHT22;60000;51.030;7.024;2023-02-28T15:02:42;8.32;35.56
72128;DHT22;60000;51.030;7.024;2023-02-28T15:07:42;8.36;35.19
72128;DHT22;60000;51.030;7.024;2023-02-28T15:10:25;8.24;34.43
72128;DHT22;60000;51.030;7.024;2023-02-28T15:13:02;8.08;34.82
72128;DHT22;60000;51.030;7.024;2023-02-28T15:18:49;7.69;35.28
72128;DHT22;60000;51.030;7.024;2023-02-28T15:21:19;7.54;35.91
72128;DHT22;60000;51.030;7.024;2023-02-28T15:23:51;7.36;35.68
72128;DHT22;60000;51.030;7.024;2023-02-28T15:26:20;7.33;36.11
72128;DHT22;60000;51.030;7.024;2023-02-28T15:28:57;7.22;36.42
72128;DHT22;60000;51.030;7.024;2023-02-28T15:31:35;7.18;36.77
72128;DHT22;60000;51.030;7.024;2023-02-28T15:34:05;7.12;37.68
72128;DHT22;60000;51.030;7.024;2023-02-28T15:36:33;7.08;37.23
72128;DHT22;60000;51.030;7.024;2023-02-28T15:39:03;7.01;37.86
72128;DHT22;60000;51.030;7.024;2023-02-28T15:41:42;6.96;37.48
72128;DHT22;60000;51.030;7.024;2023-02-28T15:44:23;6.98;37.01
72128;DHT22;60000;51.030;7.024;2023-02-28T15:49:22;7.05;37.50
72128;DHT22;60000;51.030;7.024;2023-02-28T15:51:50;7.16;37.35
72128;DHT22;60000;51.030;7.024;2023-02-28T15:54:23;7.12;36.91
72128;DHT22;60000;51.030;7.024;2023-02-28T15:56:54;7.06;37.35
72128;DHT22;60000;51.030;7.024;2023-02-28T15:59:23;6.98;37.62
72128;DHT22;60000;51.030;7.024;2023-02-28T16:04:34;6.78;38.17
72128;DHT22;60000;51.030;7.024;2023-02-28T16:07:05;6.68;38.28
72128;DHT22;60000;51.030;7.024;2023-02-28T16:09:31;6.61;38.54
72128;DHT22;60000;51.030;7.024;2023-02-28T16:12:00;6.58;38.83
72128;DHT22;60000;51.030;7.024;2023-02-28T16:14:30;6.48;38.74
72128;DHT22;60000;51.030;7.024;2023-02-28T16:17:09;6.41;39.56
72128;DHT22;60000;51.030;7.024;2023-02-28T16:19:38;6.36;39.57
72128;DHT22;60000;51.030;7.024;2023-02-28T16:22:04;6.27;39.24
72128;DHT22;60000;51.030;7.024;2023-02-28T16:24:29;6.17;39.43
72128;DHT22;60000;51.030;7.024;2023-02-28T16:26:55;6.10;39.66
72128;DHT22;60000;51.030;7.024;2023-02-28T16:29:29;6.02;39.74
72128;DHT22;60000;51.030;7.024;2023-02-28T16:31:56;5.95;40.11
72128;DHT22;60000;51.030;7.024;2023-02-28T16:34:22;5.89;40.69
72128;DHT22;60000;51.030;7.024;2023-02-28T16:36:48;5.85;40.47
72128;DHT22;60000;51.030;7.024;2023-02-28T16:39:14;5.75;41.08
72128;DHT22;60000;51.030;7.024;2023-02-28T16:41:42;5.69;41.09
72128;DHT22;60000;51.030;7.024;2023-02-28T16:44:13;5.62;41.42
72128;DHT22;60000;51.030;7.024;2023-02-28T16:46:39;5.54;41.69
72128;DHT22;60000;51.030;7.024;2023-02-28T16:49:04;5.48;41.76
72128;DHT22;60000;51.030;7.024;2023-02-28T16:51:29;5.43;41.97
72128;DHT22;60000;51.030;7.024;2023-02-28T16:53:55;5.38;41.95
72128;DHT22;60000;51.030;7.024;2023-02-28T16:56:23;5.33;42.44
72128;DHT22;60000;51.030;7.024;2023-02-28T16:58:49;5.24;42.55
72128;DHT22;60000;51.030;7.024;2023-02-28T17:01:16;5.26;42.28
72128;DHT22;60000;51.030;7.024;2023-02-28T17:03:46;5.17;42.42
72128;DHT22;60000;51.030;7.024;2023-02-28T17:06:19;5.10;42.63
72128;DHT22;60000;51.030;7.024;2023-02-28T17:08:44;5.03;43.17
72128;DHT22;60000;51.030;7.024;2023-02-28T17:11:10;4.96;43.38
72128;DHT22;60000;51.030;7.024;2023-02-28T17:13:35;4.89;43.67
72128;DHT22;60000;51.030;7.024;2023-02-28T17:16:01;4.84;44.13
72128;DHT22;60000;51.030;7.024;2023-02-28T17:18:26;4.79;44.65
72128;DHT22;60000;51.030;7.024;2023-02-28T17:20:53;4.77;44.28
72128;DHT22;60000;51.030;7.024;2023-02-28T17:23:19;4.73;45.80
72128;DHT22;60000;51.030;7.024;2023-02-28T17:25:44;4.69;46.59
72128;DHT22;60000;51.030;7.024;2023-02-28T17:28:21;4.62;47.74
72128;DHT22;60000;51.030;7.024;2023-02-28T17:30:47;4.51;48.33
72128;DHT22;60000;51.030;7.024;2023-02-28T17:33:13;4.42;48.58
72128;DHT22;60000;51.030;7.024;2023-02-28T17:35:39;4.35;49.32
72128;DHT22;60000;51.030;7.024;2023-02-28T17:38:04;4.27;49.63
72128;DHT22;60000;51.030;7.024;2023-02-28T17:40:29;4.21;50.44
72128;DHT22;60000;51.030;7.024;2023-02-28T17:42:55;4.14;50.63
72128;DHT22;60000;51.030;7.024;2023-02-28T17:45:22;4.07;51.11
72128;DHT22;60000;51.030;7.024;2023-02-28T17:47:48;4.00;51.10
72128;DHT22;60000;51.030;7.024;2023-02-28T17:50:20;3.93;51.57
72128;DHT22;60000;51.030;7.024;2023-02-28T17:52:46;3.89;52.21
72128;DHT22;60000;51.030;7.024;2023-02-28T17:55:11;3.82;52.57
72128;DHT22;60000;51.030;7.024;2023-02-28T17:57:37;3.74;52.55
72128;DHT22;60000;51.030;7.024;2023-02-28T18:00:03;3.70;52.87
72128;DHT22;60000;51.030;7.024;2023-02-28T18:02:32;3.65;52.86
72128;DHT22;60000;51.030;7.024;2023-02-28T18:04:57;3.59;53.42
72128;DHT22;60000;51.030;7.024;2023-02-28T18:07:24;3.53;53.33
72128;DHT22;60000;51.030;7.024;2023-02-28T18:09:49;3.46;53.53